• Join FlightAware (Why Join?)
  • Login
  • US Flag 
01:54PM EDT


 

Airport Tracker/Info


-or-


 

Live Flight TrackerFlight Track Log ✈ N906AC ✈ 19-Sep-2013 ✈ KPHL - KSUS

Flight Track Log - Related Links

Times and Time Zones

All times are in EDT time to prevent confusion due to time zone crossing. See the N906AC flight status page for this flight to view local times or setup timezone preferences in your user account.

Time Position Orientation Groundspeed Altitude Reporting Facility
EDT Latitude Longitude Course Direction KTS MPH feet Rate Location/Type
11:23PM 39.8667 -75.2667 275° West 145 167 1,100  Level Philadelphia TRACON
11:25PM 39.8822 -75.3634 293° West  Level FlightAware Approximate
11:27PM 39.8850 -75.5339 270° West 311 358 11,500  Level Cleveland Center
11:28PM 39.8925 -75.6583 275° West 346 398 12,300 1,500 Climbing Cleveland Center
11:29PM 39.8939 -75.7906 271° West 359 413 14,600 2,520 Climbing Cleveland Center
11:30PM 39.8997 -75.9447 273° West 357 411 17,500 2,460 Climbing Cleveland Center
11:31PM 39.9017 -76.0475 271° West 356 410 19,100 2,220 Climbing New York Center
11:32PM 39.8834 -76.2846 270° West  Level FlightAware Approximate
11:32PM 39.9044 -76.1722 272° West 356 410 21,600  Level New York Center
11:33PM 39.9008 -76.2939 268° West 345 397 24,200 2,400 Climbing New York Center
11:34PM 39.9031 -76.4211 271° West 350 403 26,400 2,160 Climbing New York Center
11:35PM 39.9014 -76.5428 269° West 350 403 28,600 2,040 Climbing New York Center
11:36PM 39.9014 -76.6675 270° West 350 403 30,500 1,800 Climbing New York Center
11:37PM 39.9011 -76.7972 270° West 350 403 32,200 1,620 Climbing New York Center
11:38PM 39.9028 -76.9275 271° West 350 403 33,800 1,500 Climbing New York Center
11:39PM 39.9000 -77.0569 268° West 350 403 35,300 1,260 Climbing New York Center
11:40PM 39.9014 -77.1897 271° West 355 409 36,400 1,020 Climbing New York Center
11:42PM 39.8989 -77.4908 269° West 378 435 38,900 960 Climbing Cleveland Center
11:43PM 39.8972 -77.6603 269° West 388 447 39,700 540 Climbing Cleveland Center
11:44PM 39.8961 -77.8042 269° West 395 455 40,000 120 Climbing Cleveland Center
11:45PM 39.8942 -77.9531 269° West 408 470 40,000  Level Cleveland Center
11:46PM 39.8928 -78.0981 269° West 403 464 40,000  Level Cleveland Center
11:47PM 39.8908 -78.2403 269° West 396 456 40,000  Level Cleveland Center
11:48PM 39.8892 -78.3711 269° West 397 457 40,000  Level Cleveland Center
11:49PM 39.8875 -78.5150 269° West 399 459 40,000  Level Cleveland Center
11:50PM 39.8853 -78.6889 269° West 401 461 40,000  Level Cleveland Center
11:51PM 39.8833 -78.8322 269° West 400 460 40,000  Level Cleveland Center
11:52PM 39.8806 -78.9697 269° West 405 466 40,000  Level Cleveland Center
11:53PM 39.8775 -79.1139 268° West 401 461 40,000  Level Cleveland Center
11:54PM 39.8753 -79.2578 269° West 397 457 40,000  Level Cleveland Center
11:55PM 39.8725 -79.4011 269° West 397 457 40,000  Level Cleveland Center
11:56PM 39.8703 -79.5497 269° West 407 468 40,000  Level Cleveland Center
11:57PM 39.8658 -79.6947 268° West 405 466 40,000  Level Cleveland Center
11:58PM 39.8611 -79.8397 268° West 401 461 40,000  Level Cleveland Center
11:59PM 39.8581 -79.9833 268° West 397 457 40,000  Level Cleveland Center
12:01AM 39.8539 -80.1292 268° West 400 460 40,000  Level Cleveland Center
12:02AM 39.8486 -80.2747 267° West 401 461 40,000  Level Cleveland Center
12:03AM 39.8444 -80.4194 268° West 401 461 40,000  Level Cleveland Center
12:04AM 39.8397 -80.5647 268° West 401 461 40,000  Level Cleveland Center
12:04AM 39.8344 -80.6564 266° West 400 460 40,000  Level Indianapolis Center
12:05AM 39.8297 -80.8011 268° West 402 463 40,000  Level Indianapolis Center
12:06AM 39.8250 -80.9461 268° West 402 463 40,000  Level Indianapolis Center
12:07AM 39.8189 -81.1192 267° West 402 463 40,000  Level Indianapolis Center
12:08AM 39.8128 -81.2619 267° West 399 459 40,000  Level Indianapolis Center
12:09AM 39.8078 -81.4042 267° West 395 455 40,000  Level Indianapolis Center
12:10AM 39.8019 -81.5319 267° West 392 451 40,000  Level Indianapolis Center
12:11AM 39.7967 -81.6719 267° West 391 450 40,000  Level Indianapolis Center
12:12AM 39.7897 -81.8128 266° West 391 450 40,000  Level Indianapolis Center
12:13AM 39.7839 -81.9533 267° West 390 449 40,000  Level Indianapolis Center
12:14AM 39.7764 -82.0942 266° West 392 451 40,000  Level Indianapolis Center
12:15AM 39.7714 -82.2336 267° West 388 447 40,000  Level Indianapolis Center
12:16AM 39.7636 -82.4008 267° West 387 445 40,000  Level Indianapolis Center
12:17AM 39.7556 -82.5389 266° West 385 443 40,000  Level Indianapolis Center
12:18AM 39.7489 -82.6778 266° West 386 444 40,000  Level Indianapolis Center
12:19AM 39.7417 -82.8175 266° West 388 447 40,000  Level Indianapolis Center
12:20AM 39.7342 -82.9558 266° West 384 442 40,000  Level Indianapolis Center
12:21AM 39.7261 -83.0953 266° West 386 444 40,000  Level Indianapolis Center
12:22AM 39.7181 -83.2383 266° West 393 452 40,000  Level Indianapolis Center
12:23AM 39.7086 -83.3833 265° West 396 456 40,000  Level Indianapolis Center
12:24AM 39.7006 -83.5319 266° West 403 464 40,000  Level Indianapolis Center
12:25AM 39.6914 -83.6806 265° West 407 468 40,000  Level Indianapolis Center
12:26AM 39.6839 -83.8242 266° West 399 459 40,000  Level Indianapolis Center
12:27AM 39.6753 -83.9658 266° West 395 455 40,000  Level Indianapolis Center
12:28AM 39.6661 -84.1064 265° West 392 451 40,000  Level Indianapolis Center
12:29AM 39.6586 -84.2461 266° West 390 449 40,000  Level Indianapolis Center
12:30AM 39.6481 -84.3881 265° West 394 453 40,000  Level Indianapolis Center
12:31AM 39.6392 -84.5286 265° West 394 453 40,000  Level Indianapolis Center
12:32AM 39.6300 -84.6706 265° West 395 455 40,000  Level Indianapolis Center
12:34AM 39.6186 -84.8103 264° West 392 451 40,000  Level Indianapolis Center
12:35AM 39.6097 -84.9569 266° West 389 448 40,000  Level Indianapolis Center
12:36AM 39.5989 -85.0939 264° West 385 443 40,000  Level Indianapolis Center
12:37AM 39.5892 -85.2306 265° West 383 441 40,000  Level Indianapolis Center
12:38AM 39.5783 -85.3681 264° West 384 442 40,000  Level Indianapolis Center
12:39AM 39.5689 -85.5061 265° West 384 442 40,000  Level Indianapolis Center
12:40AM 39.5583 -85.6433 264° West 385 443 40,000  Level Indianapolis Center
12:41AM 39.5472 -85.7819 264° West 387 445 40,000  Level Indianapolis Center
12:42AM 39.5356 -85.9208 264° West 388 447 40,000  Level Indianapolis Center
12:43AM 39.5247 -86.0606 264° West 389 448 40,000  Level Indianapolis Center
12:44AM 39.5128 -86.2006 264° West 388 447 40,000  Level Indianapolis Center
12:45AM 39.5017 -86.3411 264° West 389 448 40,000  Level Indianapolis Center
12:46AM 39.4908 -86.4803 264° West 386 444 40,000  Level Indianapolis Center
12:47AM 39.4783 -86.6194 263° West 387 445 40,000  Level Indianapolis Center
12:48AM 39.4672 -86.7586 264° West 388 447 40,000  Level Indianapolis Center
12:49AM 39.4550 -86.8978 264° West 390 449 40,000  Level Indianapolis Center
12:50AM 39.4425 -87.0369 263° West 391 450 40,000  Level Indianapolis Center
12:51AM 39.4300 -87.1772 263° West 393 452 40,000  Level Indianapolis Center
12:52AM 39.4169 -87.3183 263° West 396 456 40,000  Level Indianapolis Center
12:53AM 39.4039 -87.4572 263° West 392 451 40,000  Level Indianapolis Center
12:54AM 39.3914 -87.5956 263° West 390 449 40,000  Level Indianapolis Center
12:55AM 39.3783 -87.7356 263° West 392 451 40,000  Level Indianapolis Center
12:56AM 39.3628 -87.8931 263° West 390 449 40,000 -840 Level Indianapolis Center
12:57AM 39.3492 -88.0269 263° West 380 437 38,400 -1,560 Descending Indianapolis Center
12:58AM 39.3392 -88.1328 263° West 372 428 37,000 -1,740 Descending Kansas City Center
12:59AM 39.3258 -88.2625 262° West 366 421 35,200 -1,800 Descending Kansas City Center
01:00AM 39.3128 -88.3975 263° West 374 430 33,400 -1,860 Descending Kansas City Center
01:01AM 39.2981 -88.5353 262° West 383 441 31,500 -1,920 Descending Kansas City Center
01:02AM 39.2764 -88.6703 258° West 382 440 29,600 -1,920 Descending Kansas City Center
01:03AM 39.2325 -88.7917 245° Southwest 377 434 27,700 -1,860 Descending Kansas City Center
01:04AM 39.1956 -88.9122 248° West 370 426 25,900 -1,800 Descending Kansas City Center
01:05AM 39.1603 -89.0322 249° West 363 418 24,100 -1,980 Descending Kansas City Center
01:06AM 39.1192 -89.1714 249° West 354 407 22,000 -1,920 Descending Kansas City Center
01:07AM 39.0825 -89.2889 248° West 354 407 20,300 -1,800 Descending Kansas City Center
01:08AM 39.0475 -89.4075 249° West 355 409 18,500 -1,740 Descending Kansas City Center
01:09AM 39.0086 -89.5167 245° Southwest 337 388 16,900 -1,620 Descending Kansas City Center
01:10AM 38.9628 -89.6103 238° Southwest 312 359 15,300 -1,680 Descending Kansas City Center
01:11AM 38.9225 -89.7042 241° Southwest 303 349 13,600 -1,560 Descending Kansas City Center
01:12AM 38.8714 -89.8117 239° Southwest 292 336 11,700 -1,440 Descending Kansas City Center
01:13AM 38.8303 -89.8944 237° Southwest 280 322 10,200 -1,560 Descending Kansas City Center
01:14AM 38.7922 -89.9697 237° Southwest 262 302 8,600 -1,620 Descending Kansas City Center
01:15AM 38.7594 -90.0375 238° Southwest 238 274 7,000 -1,320 Descending Kansas City Center
01:16AM 38.7436 -90.1142 255° West 230 265 6,000 -540 Descending Kansas City Center
01:17AM 38.7356 -90.1867 262° West 218 251 6,000  Level Kansas City Center
01:18AM 38.7228 -90.2553 257° West 207 238 6,000 -480 Level Kansas City Center
01:19AM 38.7119 -90.3319 260° West 211 243 5,100 -900 Descending Kansas City Center
01:22AM 38.6534 -90.6327 256° West  Level FlightAware Approximate
01:29AM 38.6500 -90.6500 250° West  Level FlightAware Approximate
01:30AM 38.6621 -90.6521 250° West  Level Estimated
01:31AM 38.6621 -90.6521 250° West  Level Estimated
01:32AM 38.6621 -90.6521 250° West  Level Estimated
01:33AM 38.6621 -90.6521 250° West  Level Estimated